Airfield :
LOGIN :

Register | Disclaimer

   EN    FR    IT 

 










Legend :    VFR   Marginal VFR   IFR   Intensive IFR   Very Intensive IFR
Visi :
Ceiling :
>= 8 km
>= 3000ft
5 to 8 km
1000 to 3000 ft
1500m to 5 km
500 to 1000 ft
800 to 1500m
200 to 500 ft
< 800m
< 200 ft
Symbols :   Thunderstorms  Fog  Heavy snow  Heavy precipitations  Wind > 20 kt
SIGMETs :     Misc.  Thunderstorms  Icing  Turbulence  Mountain Waves  Volcanic Ashes






- Airport Elevation : 538 ft
- IATA code : TNF


LFPN - Toussus Le Noble

CURRENT METAR :
  • 170500Z AUTO 21007KT CAVOK 12/11 Q1010

EXPIRED METARs :
  • 170430Z AUTO 21005KT 9999 FEW034 BKN056 OVC068 12/11 Q1010
  • 170400Z AUTO 21006KT 9999 BKN036 BKN056 OVC130 11/11 Q1010
  • 170330Z AUTO 20006KT 9999 FEW039 OVC058 11/11 Q1011
  • 170300Z AUTO 18004KT CAVOK 11/10 Q1010
  • 170230Z AUTO 18003KT CAVOK 11/10 Q1010

Expired Forecast.
ATIS : +33 1 39 56 54 70



MET'MAP, your aeronautical weather chart ! - Copyright ORBIFLY December 2007 - Disclaimer

ORBIFLY MET'MAP TEAM :

Programming & Development : Alexandra Zaïnal
Concept & Development : Baudouin d'Aumeries
Co-Development & Prog : Marc-Olivier Méhu
Technical & hardware support : Manuel Goepfert

Contact : metmap@orbifly.com




SOURCES & CREDITS :

   NOAA